sensor_id;sensor_type;location;lat;lon;timestamp;temperature;humidity
21928;DHT22;11128;51.096;17.190;2022-07-01T00:04:53;21.70;1.00
21928;DHT22;11128;51.096;17.190;2022-07-01T00:09:56;21.70;1.00
21928;DHT22;11128;51.096;17.190;2022-07-01T00:14:58;21.60;1.00
21928;DHT22;11128;51.096;17.190;2022-07-01T00:20:02;21.50;1.00
21928;DHT22;11128;51.096;17.190;2022-07-01T00:25:04;21.40;1.00
21928;DHT22;11128;51.096;17.190;2022-07-01T00:30:09;21.40;1.00
21928;DHT22;11128;51.096;17.190;2022-07-01T00:35:11;21.30;1.00
21928;DHT22;11128;51.096;17.190;2022-07-01T00:40:12;21.20;1.00
21928;DHT22;11128;51.096;17.190;2022-07-01T00:45:14;21.10;1.00
21928;DHT22;11128;51.096;17.190;2022-07-01T00:50:16;21.10;1.00
21928;DHT22;11128;51.096;17.190;2022-07-01T00:55:17;21.00;1.00
21928;DHT22;11128;51.096;17.190;2022-07-01T01:00:19;21.00;1.00
21928;DHT22;11128;51.096;17.190;2022-07-01T01:05:27;20.90;1.00
21928;DHT22;11128;51.096;17.190;2022-07-01T01:10:30;20.80;8.90
21928;DHT22;11128;51.096;17.190;2022-07-01T01:15:31;20.70;19.10
21928;DHT22;11128;51.096;17.190;2022-07-01T01:20:37;20.70;43.00
21928;DHT22;11128;51.096;17.190;2022-07-01T01:25:39;20.60;67.60
21928;DHT22;11128;51.096;17.190;2022-07-01T01:30:41;20.50;75.20
21928;DHT22;11128;51.096;17.190;2022-07-01T01:35:42;20.40;92.80
21928;DHT22;11128;51.096;17.190;2022-07-01T01:40:44;20.30;99.90
21928;DHT22;11128;51.096;17.190;2022-07-01T01:45:46;20.30;99.90
21928;DHT22;11128;51.096;17.190;2022-07-01T01:50:47;20.20;99.90
21928;DHT22;11128;51.096;17.190;2022-07-01T01:55:49;20.10;99.90
21928;DHT22;11128;51.096;17.190;2022-07-01T02:00:51;20.00;99.90
21928;DHT22;11128;51.096;17.190;2022-07-01T02:05:52;20.00;99.90
21928;DHT22;11128;51.096;17.190;2022-07-01T02:10:53;20.00;99.90
21928;DHT22;11128;51.096;17.190;2022-07-01T02:15:55;20.00;99.90
21928;DHT22;11128;51.096;17.190;2022-07-01T02:20:57;19.90;99.90
21928;DHT22;11128;51.096;17.190;2022-07-01T02:25:58;19.90;99.90
21928;DHT22;11128;51.096;17.190;2022-07-01T02:31:00;19.80;99.90
21928;DHT22;11128;51.096;17.190;2022-07-01T02:36:03;19.80;99.90
21928;DHT22;11128;51.096;17.190;2022-07-01T02:41:05;19.70;99.90
21928;DHT22;11128;51.096;17.190;2022-07-01T02:46:07;19.70;99.90
21928;DHT22;11128;51.096;17.190;2022-07-01T02:51:09;19.70;99.90
21928;DHT22;11128;51.096;17.190;2022-07-01T02:56:11;19.70;99.90
21928;DHT22;11128;51.096;17.190;2022-07-01T03:01:13;19.60;99.90
21928;DHT22;11128;51.096;17.190;2022-07-01T03:06:14;19.60;99.90
21928;DHT22;11128;51.096;17.190;2022-07-01T03:11:17;19.60;99.90
21928;DHT22;11128;51.096;17.190;2022-07-01T03:16:19;19.60;99.90
21928;DHT22;11128;51.096;17.190;2022-07-01T03:21:21;19.70;99.90
21928;DHT22;11128;51.096;17.190;2022-07-01T03:26:22;19.90;98.10
21928;DHT22;11128;51.096;17.190;2022-07-01T03:31:24;19.90;50.20
21928;DHT22;11128;51.096;17.190;2022-07-01T03:36:25;20.00;99.90
21928;DHT22;11128;51.096;17.190;2022-07-01T03:41:26;20.00;99.90
21928;DHT22;11128;51.096;17.190;2022-07-01T03:46:28;20.10;99.90
21928;DHT22;11128;51.096;17.190;2022-07-01T03:51:33;20.10;99.90
21928;DHT22;11128;51.096;17.190;2022-07-01T03:56:34;20.10;99.90
21928;DHT22;11128;51.096;17.190;2022-07-01T04:01:36;20.30;99.90
21928;DHT22;11128;51.096;17.190;2022-07-01T04:06:38;20.30;99.90
21928;DHT22;11128;51.096;17.190;2022-07-01T04:11:40;20.40;99.90
21928;DHT22;11128;51.096;17.190;2022-07-01T04:16:44;20.50;99.90
21928;DHT22;11128;51.096;17.190;2022-07-01T04:21:45;20.60;99.90
21928;DHT22;11128;51.096;17.190;2022-07-01T04:27:05;20.70;99.90
21928;DHT22;11128;51.096;17.190;2022-07-01T04:32:06;20.80;99.90
21928;DHT22;11128;51.096;17.190;2022-07-01T04:37:08;21.00;99.90
21928;DHT22;11128;51.096;17.190;2022-07-01T04:42:10;21.10;99.90
21928;DHT22;11128;51.096;17.190;2022-07-01T04:47:11;21.40;99.90
21928;DHT22;11128;51.096;17.190;2022-07-01T04:52:12;21.60;99.90
21928;DHT22;11128;51.096;17.190;2022-07-01T04:57:14;21.80;99.90
21928;DHT22;11128;51.096;17.190;2022-07-01T05:02:15;22.00;99.90
21928;DHT22;11128;51.096;17.190;2022-07-01T05:07:17;22.20;99.90
21928;DHT22;11128;51.096;17.190;2022-07-01T05:12:31;22.30;99.90
21928;DHT22;11128;51.096;17.190;2022-07-01T05:17:35;22.40;99.90
21928;DHT22;11128;51.096;17.190;2022-07-01T05:22:55;22.50;99.90
21928;DHT22;11128;51.096;17.190;2022-07-01T05:27:56;22.70;99.90
21928;DHT22;11128;51.096;17.190;2022-07-01T05:32:57;22.70;99.90
21928;DHT22;11128;51.096;17.190;2022-07-01T05:37:59;22.80;99.90
21928;DHT22;11128;51.096;17.190;2022-07-01T05:43:00;22.90;99.90
21928;DHT22;11128;51.096;17.190;2022-07-01T05:48:02;23.10;99.90
21928;DHT22;11128;51.096;17.190;2022-07-01T05:53:03;23.20;99.90
21928;DHT22;11128;51.096;17.190;2022-07-01T05:58:05;23.20;99.90
21928;DHT22;11128;51.096;17.190;2022-07-01T06:03:12;23.40;99.90
21928;DHT22;11128;51.096;17.190;2022-07-01T06:08:14;23.50;99.90
21928;DHT22;11128;51.096;17.190;2022-07-01T06:13:15;23.60;99.90
21928;DHT22;11128;51.096;17.190;2022-07-01T06:18:17;23.80;99.90
21928;DHT22;11128;51.096;17.190;2022-07-01T06:23:19;24.00;99.90
21928;DHT22;11128;51.096;17.190;2022-07-01T06:28:20;24.10;99.90
21928;DHT22;11128;51.096;17.190;2022-07-01T06:33:22;24.30;99.90
21928;DHT22;11128;51.096;17.190;2022-07-01T06:38:24;24.60;99.90
21928;DHT22;11128;51.096;17.190;2022-07-01T06:43:26;24.90;99.90
21928;DHT22;11128;51.096;17.190;2022-07-01T06:48:27;25.10;99.90
21928;DHT22;11128;51.096;17.190;2022-07-01T06:53:29;25.30;99.90
21928;DHT22;11128;51.096;17.190;2022-07-01T06:58:31;25.50;99.90
21928;DHT22;11128;51.096;17.190;2022-07-01T07:03:32;25.70;99.90
21928;DHT22;11128;51.096;17.190;2022-07-01T07:08:34;25.90;99.90
21928;DHT22;11128;51.096;17.190;2022-07-01T07:13:36;26.20;99.90
21928;DHT22;11128;51.096;17.190;2022-07-01T07:18:38;26.50;99.90
21928;DHT22;11128;51.096;17.190;2022-07-01T07:23:40;26.70;99.90
21928;DHT22;11128;51.096;17.190;2022-07-01T07:28:43;26.90;99.90
21928;DHT22;11128;51.096;17.190;2022-07-01T07:33:44;27.30;99.90
21928;DHT22;11128;51.096;17.190;2022-07-01T07:38:46;27.70;99.90
21928;DHT22;11128;51.096;17.190;2022-07-01T07:43:48;28.00;99.90
21928;DHT22;11128;51.096;17.190;2022-07-01T07:48:50;28.20;99.90
21928;DHT22;11128;51.096;17.190;2022-07-01T07:53:52;28.40;99.90
21928;DHT22;11128;51.096;17.190;2022-07-01T07:58:54;28.60;99.90
21928;DHT22;11128;51.096;17.190;2022-07-01T08:03:55;28.90;99.90
21928;DHT22;11128;51.096;17.190;2022-07-01T08:08:57;29.10;99.90
21928;DHT22;11128;51.096;17.190;2022-07-01T08:13:58;29.60;98.00
21928;DHT22;11128;51.096;17.190;2022-07-01T08:19:00;29.60;96.80
21928;DHT22;11128;51.096;17.190;2022-07-01T08:24:04;30.00;97.30
21928;DHT22;11128;51.096;17.190;2022-07-01T08:29:07;30.40;97.20
21928;DHT22;11128;51.096;17.190;2022-07-01T08:34:09;30.70;94.40
21928;DHT22;11128;51.096;17.190;2022-07-01T08:39:11;30.80;93.10
21928;DHT22;11128;51.096;17.190;2022-07-01T08:44:13;31.20;96.50
21928;DHT22;11128;51.096;17.190;2022-07-01T08:49:16;31.60;86.60
21928;DHT22;11128;51.096;17.190;2022-07-01T08:54:19;32.20;87.00
21928;DHT22;11128;51.096;17.190;2022-07-01T08:59:25;32.60;76.90
21928;DHT22;11128;51.096;17.190;2022-07-01T09:04:27;33.00;69.70
21928;DHT22;11128;51.096;17.190;2022-07-01T09:09:37;32.80;66.40
21928;DHT22;11128;51.096;17.190;2022-07-01T09:14:38;32.60;67.10
21928;DHT22;11128;51.096;17.190;2022-07-01T09:19:41;32.60;66.70
21928;DHT22;11128;51.096;17.190;2022-07-01T09:24:51;32.70;64.50
21928;DHT22;11128;51.096;17.190;2022-07-01T09:29:52;33.20;63.00
21928;DHT22;11128;51.096;17.190;2022-07-01T09:34:55;34.00;64.80
21928;DHT22;11128;51.096;17.190;2022-07-01T09:39:57;35.00;56.40
21928;DHT22;11128;51.096;17.190;2022-07-01T09:45:06;35.40;58.30
21928;DHT22;11128;51.096;17.190;2022-07-01T09:50:11;35.30;51.00
21928;DHT22;11128;51.096;17.190;2022-07-01T09:55:12;35.70;48.00
21928;DHT22;11128;51.096;17.190;2022-07-01T10:00:14;36.40;45.80
21928;DHT22;11128;51.096;17.190;2022-07-01T10:05:19;36.00;42.20
21928;DHT22;11128;51.096;17.190;2022-07-01T10:16:03;36.60;40.00
21928;DHT22;11128;51.096;17.190;2022-07-01T10:21:05;36.70;38.50
21928;DHT22;11128;51.096;17.190;2022-07-01T10:26:07;36.90;41.40
21928;DHT22;11128;51.096;17.190;2022-07-01T10:31:12;37.40;37.30
21928;DHT22;11128;51.096;17.190;2022-07-01T10:36:31;37.40;38.80
21928;DHT22;11128;51.096;17.190;2022-07-01T10:46:53;37.40;32.40
21928;DHT22;11128;51.096;17.190;2022-07-01T10:52:07;37.80;32.60
21928;DHT22;11128;51.096;17.190;2022-07-01T11:07:29;38.90;31.40
21928;DHT22;11128;51.096;17.190;2022-07-01T11:12:31;38.50;28.10
21928;DHT22;11128;51.096;17.190;2022-07-01T11:17:34;38.80;27.50
21928;DHT22;11128;51.096;17.190;2022-07-01T11:22:35;38.70;26.30
21928;DHT22;11128;51.096;17.190;2022-07-01T11:27:38;38.30;26.30
21928;DHT22;11128;51.096;17.190;2022-07-01T11:32:47;38.40;28.30
21928;DHT22;11128;51.096;17.190;2022-07-01T11:37:49;38.70;26.90
21928;DHT22;11128;51.096;17.190;2022-07-01T11:43:24;38.70;26.80
21928;DHT22;11128;51.096;17.190;2022-07-01T11:48:37;39.00;27.20
21928;DHT22;11128;51.096;17.190;2022-07-01T11:53:40;39.10;25.00
21928;DHT22;11128;51.096;17.190;2022-07-01T11:58:52;38.80;25.30
21928;DHT22;11128;51.096;17.190;2022-07-01T12:03:55;39.10;25.70
21928;DHT22;11128;51.096;17.190;2022-07-01T12:08:58;39.40;25.90
21928;DHT22;11128;51.096;17.190;2022-07-01T12:14:00;39.40;24.30
21928;DHT22;11128;51.096;17.190;2022-07-01T12:19:02;39.00;24.90
21928;DHT22;11128;51.096;17.190;2022-07-01T12:24:12;38.00;26.00
21928;DHT22;11128;51.096;17.190;2022-07-01T12:29:17;35.70;30.70
21928;DHT22;11128;51.096;17.190;2022-07-01T12:34:19;33.50;35.20
21928;DHT22;11128;51.096;17.190;2022-07-01T12:39:21;32.30;39.20
21928;DHT22;11128;51.096;17.190;2022-07-01T12:44:24;31.30;44.30
21928;DHT22;11128;51.096;17.190;2022-07-01T12:49:25;30.90;50.20
21928;DHT22;11128;51.096;17.190;2022-07-01T12:54:32;30.70;56.50
21928;DHT22;11128;51.096;17.190;2022-07-01T12:59:34;30.60;99.90
21928;DHT22;11128;51.096;17.190;2022-07-01T13:04:35;30.50;99.90
21928;DHT22;11128;51.096;17.190;2022-07-01T13:09:37;30.10;99.90
21928;DHT22;11128;51.096;17.190;2022-07-01T13:14:38;30.00;1.00
21928;DHT22;11128;51.096;17.190;2022-07-01T13:19:40;29.90;1.00
21928;DHT22;11128;51.096;17.190;2022-07-01T13:24:42;29.60;99.90
21928;DHT22;11128;51.096;17.190;2022-07-01T13:29:44;29.10;99.90
21928;DHT22;11128;51.096;17.190;2022-07-01T13:34:46;28.60;1.00
21928;DHT22;11128;51.096;17.190;2022-07-01T13:39:48;28.10;1.00
21928;DHT22;11128;51.096;17.190;2022-07-01T13:44:49;27.70;99.90
21928;DHT22;11128;51.096;17.190;2022-07-01T13:49:52;27.40;53.70
21928;DHT22;11128;51.096;17.190;2022-07-01T13:54:54;27.10;1.00
21928;DHT22;11128;51.096;17.190;2022-07-01T13:59:57;26.80;99.90
21928;DHT22;11128;51.096;17.190;2022-07-01T14:04:59;26.50;99.90
21928;DHT22;11128;51.096;17.190;2022-07-01T14:10:01;25.50;99.90
21928;DHT22;11128;51.096;17.190;2022-07-01T14:15:04;24.80;99.90
21928;DHT22;11128;51.096;17.190;2022-07-01T14:20:06;24.30;99.90
21928;DHT22;11128;51.096;17.190;2022-07-01T14:25:10;24.00;99.90
21928;DHT22;11128;51.096;17.190;2022-07-01T14:30:12;23.90;99.90
21928;DHT22;11128;51.096;17.190;2022-07-01T14:35:16;23.70;99.90
21928;DHT22;11128;51.096;17.190;2022-07-01T14:40:18;23.70;99.90
21928;DHT22;11128;51.096;17.190;2022-07-01T14:45:20;23.60;99.90
21928;DHT22;11128;51.096;17.190;2022-07-01T14:50:22;23.60;99.90
21928;DHT22;11128;51.096;17.190;2022-07-01T14:55:24;23.60;99.90
21928;DHT22;11128;51.096;17.190;2022-07-01T15:00:26;23.40;99.90
21928;DHT22;11128;51.096;17.190;2022-07-01T15:05:30;23.30;99.90
21928;DHT22;11128;51.096;17.190;2022-07-01T15:10:34;23.30;99.90
21928;DHT22;11128;51.096;17.190;2022-07-01T15:15:35;23.30;99.90
21928;DHT22;11128;51.096;17.190;2022-07-01T15:20:37;23.30;99.90
21928;DHT22;11128;51.096;17.190;2022-07-01T15:25:38;23.30;99.90
21928;DHT22;11128;51.096;17.190;2022-07-01T15:30:40;23.20;99.90
21928;DHT22;11128;51.096;17.190;2022-07-01T15:35:42;22.90;99.90
21928;DHT22;11128;51.096;17.190;2022-07-01T15:40:44;22.60;99.90
21928;DHT22;11128;51.096;17.190;2022-07-01T15:45:46;22.40;99.90
21928;DHT22;11128;51.096;17.190;2022-07-01T15:50:50;22.30;99.90
21928;DHT22;11128;51.096;17.190;2022-07-01T15:55:54;22.30;99.90
21928;DHT22;11128;51.096;17.190;2022-07-01T16:00:55;22.30;99.90
21928;DHT22;11128;51.096;17.190;2022-07-01T16:06:03;22.30;99.90
21928;DHT22;11128;51.096;17.190;2022-07-01T16:11:12;22.30;99.90
21928;DHT22;11128;51.096;17.190;2022-07-01T16:16:19;22.30;99.90
21928;DHT22;11128;51.096;17.190;2022-07-01T16:21:22;22.30;99.90
21928;DHT22;11128;51.096;17.190;2022-07-01T16:26:25;22.20;99.90
21928;DHT22;11128;51.096;17.190;2022-07-01T16:31:26;22.10;99.90
21928;DHT22;11128;51.096;17.190;2022-07-01T16:36:28;22.00;99.90
21928;DHT22;11128;51.096;17.190;2022-07-01T16:47:03;21.90;99.90
21928;DHT22;11128;51.096;17.190;2022-07-01T16:52:10;21.80;99.90
21928;DHT22;11128;51.096;17.190;2022-07-01T16:57:15;21.70;99.90
21928;DHT22;11128;51.096;17.190;2022-07-01T17:02:20;21.70;99.90
21928;DHT22;11128;51.096;17.190;2022-07-01T17:07:22;21.70;99.90
21928;DHT22;11128;51.096;17.190;2022-07-01T17:12:23;21.60;99.90
21928;DHT22;11128;51.096;17.190;2022-07-01T17:17:25;21.40;99.90
21928;DHT22;11128;51.096;17.190;2022-07-01T17:33:15;21.20;99.90
21928;DHT22;11128;51.096;17.190;2022-07-01T17:38:19;21.20;99.90
21928;DHT22;11128;51.096;17.190;2022-07-01T17:43:23;21.20;99.90
21928;DHT22;11128;51.096;17.190;2022-07-01T17:48:26;21.20;99.90
21928;DHT22;11128;51.096;17.190;2022-07-01T17:53:28;21.10;99.90
21928;DHT22;11128;51.096;17.190;2022-07-01T17:58:30;21.10;99.90
21928;DHT22;11128;51.096;17.190;2022-07-01T18:03:35;21.10;99.90
21928;DHT22;11128;51.096;17.190;2022-07-01T18:08:37;21.00;99.90
21928;DHT22;11128;51.096;17.190;2022-07-01T18:14:08;20.90;99.90
21928;DHT22;11128;51.096;17.190;2022-07-01T18:24:36;20.70;99.90
21928;DHT22;11128;51.096;17.190;2022-07-01T18:29:50;20.50;99.90
21928;DHT22;11128;51.096;17.190;2022-07-01T18:34:59;20.40;99.90
21928;DHT22;11128;51.096;17.190;2022-07-01T18:40:01;20.30;99.90
21928;DHT22;11128;51.096;17.190;2022-07-01T18:45:04;20.30;99.90
21928;DHT22;11128;51.096;17.190;2022-07-01T18:50:08;20.20;99.90
21928;DHT22;11128;51.096;17.190;2022-07-01T18:55:10;20.20;99.90
21928;DHT22;11128;51.096;17.190;2022-07-01T19:00:15;20.10;99.90
21928;DHT22;11128;51.096;17.190;2022-07-01T19:05:18;20.00;99.90
21928;DHT22;11128;51.096;17.190;2022-07-01T19:10:21;20.00;99.90
21928;DHT22;11128;51.096;17.190;2022-07-01T19:15:24;19.80;99.90
21928;DHT22;11128;51.096;17.190;2022-07-01T19:20:26;19.80;99.90
21928;DHT22;11128;51.096;17.190;2022-07-01T19:25:29;19.70;99.90
21928;DHT22;11128;51.096;17.190;2022-07-01T19:30:30;19.60;99.90
21928;DHT22;11128;51.096;17.190;2022-07-01T19:35:33;19.50;99.90
21928;DHT22;11128;51.096;17.190;2022-07-01T19:40:36;19.40;99.90
21928;DHT22;11128;51.096;17.190;2022-07-01T19:45:38;19.40;99.90
21928;DHT22;11128;51.096;17.190;2022-07-01T19:50:40;19.40;99.90
21928;DHT22;11128;51.096;17.190;2022-07-01T19:55:41;19.30;99.90
21928;DHT22;11128;51.096;17.190;2022-07-01T20:00:44;19.30;99.90
21928;DHT22;11128;51.096;17.190;2022-07-01T20:05:45;19.30;99.90
21928;DHT22;11128;51.096;17.190;2022-07-01T20:10:48;19.20;99.90
21928;DHT22;11128;51.096;17.190;2022-07-01T20:15:50;19.10;99.90
21928;DHT22;11128;51.096;17.190;2022-07-01T20:20:52;19.00;99.90
21928;DHT22;11128;51.096;17.190;2022-07-01T20:25:55;18.90;99.90
21928;DHT22;11128;51.096;17.190;2022-07-01T20:30:56;18.80;99.90
21928;DHT22;11128;51.096;17.190;2022-07-01T20:35:58;18.70;99.90
21928;DHT22;11128;51.096;17.190;2022-07-01T20:41:00;18.60;99.90
21928;DHT22;11128;51.096;17.190;2022-07-01T20:46:02;18.60;99.90
21928;DHT22;11128;51.096;17.190;2022-07-01T20:51:03;18.50;99.90
21928;DHT22;11128;51.096;17.190;2022-07-01T20:56:05;18.50;99.90
21928;DHT22;11128;51.096;17.190;2022-07-01T21:01:07;18.50;99.90
21928;DHT22;11128;51.096;17.190;2022-07-01T21:06:08;18.50;99.90
21928;DHT22;11128;51.096;17.190;2022-07-01T21:11:11;18.50;99.90
21928;DHT22;11128;51.096;17.190;2022-07-01T21:16:12;18.50;99.90
21928;DHT22;11128;51.096;17.190;2022-07-01T21:21:14;18.50;99.90
21928;DHT22;11128;51.096;17.190;2022-07-01T21:26:15;18.40;99.90
21928;DHT22;11128;51.096;17.190;2022-07-01T21:31:17;18.50;99.90
21928;DHT22;11128;51.096;17.190;2022-07-01T21:36:18;18.50;99.90
21928;DHT22;11128;51.096;17.190;2022-07-01T21:41:22;18.50;99.90
21928;DHT22;11128;51.096;17.190;2022-07-01T21:46:24;18.50;99.90
21928;DHT22;11128;51.096;17.190;2022-07-01T21:51:27;18.40;99.90
21928;DHT22;11128;51.096;17.190;2022-07-01T21:56:28;18.40;99.90
21928;DHT22;11128;51.096;17.190;2022-07-01T22:01:31;18.40;99.90
21928;DHT22;11128;51.096;17.190;2022-07-01T22:06:33;18.30;99.90
21928;DHT22;11128;51.096;17.190;2022-07-01T22:11:58;18.30;99.90
21928;DHT22;11128;51.096;17.190;2022-07-01T22:17:02;18.30;99.90
21928;DHT22;11128;51.096;17.190;2022-07-01T22:22:04;18.10;99.90
21928;DHT22;11128;51.096;17.190;2022-07-01T22:27:07;17.90;99.90
21928;DHT22;11128;51.096;17.190;2022-07-01T22:32:11;17.80;99.90
21928;DHT22;11128;51.096;17.190;2022-07-01T22:37:12;17.80;99.90
21928;DHT22;11128;51.096;17.190;2022-07-01T22:42:15;17.70;99.90
21928;DHT22;11128;51.096;17.190;2022-07-01T22:47:18;17.70;99.90
21928;DHT22;11128;51.096;17.190;2022-07-01T22:57:34;17.50;99.90
21928;DHT22;11128;51.096;17.190;2022-07-01T23:02:41;17.40;99.90
21928;DHT22;11128;51.096;17.190;2022-07-01T23:07:50;17.50;99.90
21928;DHT22;11128;51.096;17.190;2022-07-01T23:13:17;17.40;99.90
21928;DHT22;11128;51.096;17.190;2022-07-01T23:18:22;17.40;99.90
21928;DHT22;11128;51.096;17.190;2022-07-01T23:23:25;17.50;99.90
21928;DHT22;11128;51.096;17.190;2022-07-01T23:28:29;17.40;99.90
21928;DHT22;11128;51.096;17.190;2022-07-01T23:33:32;17.40;99.90
21928;DHT22;11128;51.096;17.190;2022-07-01T23:38:34;17.40;99.90
21928;DHT22;11128;51.096;17.190;2022-07-01T23:43:37;17.40;99.90
21928;DHT22;11128;51.096;17.190;2022-07-01T23:48:39;17.30;99.90
21928;DHT22;11128;51.096;17.190;2022-07-01T23:53:41;17.30;99.90
21928;DHT22;11128;51.096;17.190;2022-07-01T23:58:42;17.30;99.90
